createdAt,value
2023-05-05T00:00:16.826Z,29.19
2023-05-05T00:02:18.370Z,29.19
2023-05-05T00:04:22.632Z,29.20
2023-05-05T00:06:24.375Z,29.23
2023-05-05T00:08:25.971Z,29.23
2023-05-05T00:10:27.903Z,29.20
2023-05-05T00:12:29.688Z,29.19
2023-05-05T00:14:31.353Z,29.20
2023-05-05T00:16:33.484Z,29.21
2023-05-05T00:18:35.154Z,29.20
2023-05-05T00:20:36.838Z,29.24
2023-05-05T00:22:38.452Z,29.23
2023-05-05T00:24:40.176Z,29.23
2023-05-05T00:26:41.732Z,29.24
2023-05-05T00:28:43.760Z,29.24
2023-05-05T00:30:45.466Z,29.24
2023-05-05T00:32:50.151Z,29.22
2023-05-05T00:34:51.918Z,29.20
2023-05-05T00:36:53.950Z,29.22
2023-05-05T00:38:55.449Z,29.22
2023-05-05T00:40:57.002Z,29.24
2023-05-05T00:42:59.562Z,29.25
2023-05-05T00:45:01.129Z,29.24
2023-05-05T00:47:05.050Z,29.24
2023-05-05T00:49:06.890Z,29.23
2023-05-05T00:51:10.277Z,29.25
2023-05-05T00:53:12.038Z,29.24
2023-05-05T00:55:13.792Z,29.25
2023-05-05T00:57:15.540Z,29.24
2023-05-05T00:59:17.611Z,29.22
2023-05-05T01:01:19.617Z,29.24
2023-05-05T01:03:21.359Z,29.24
2023-05-05T01:05:23.991Z,29.25
2023-05-05T01:07:43.649Z,29.25
2023-05-05T01:10:24.186Z,29.25
2023-05-05T01:12:44.279Z,29.25
2023-05-05T01:15:01.770Z,29.26
2023-05-05T01:17:10.604Z,29.25
2023-05-05T01:19:33.301Z,29.25
2023-05-05T01:21:41.328Z,29.24
2023-05-05T01:24:04.443Z,29.24
2023-05-05T01:26:30.696Z,29.23
2023-05-05T01:28:49.697Z,29.26
2023-05-05T01:31:03.362Z,29.25
2023-05-05T01:33:08.634Z,29.25
2023-05-05T01:35:16.085Z,29.27
2023-05-05T01:37:27.800Z,29.27
2023-05-05T01:39:31.760Z,29.25
2023-05-05T01:41:45.464Z,29.25
2023-05-05T01:43:49.855Z,29.25
2023-05-05T01:45:51.663Z,29.25
2023-05-05T01:47:54.753Z,29.25
2023-05-05T01:49:56.364Z,29.27
2023-05-05T01:51:58.884Z,29.26
2023-05-05T01:54:03.843Z,29.28
2023-05-05T01:56:06.310Z,29.27
2023-05-05T01:58:08.275Z,29.26
2023-05-05T02:00:11.521Z,29.26
2023-05-05T02:02:14.509Z,29.24
2023-05-05T02:04:17.883Z,29.24
2023-05-05T02:06:20.840Z,29.24
2023-05-05T02:08:24.415Z,29.25
2023-05-05T02:10:27.165Z,29.26
2023-05-05T02:12:30.175Z,29.26
2023-05-05T02:14:31.944Z,29.26
2023-05-05T02:16:33.809Z,29.26
2023-05-05T02:18:36.089Z,29.28
2023-05-05T02:20:39.167Z,29.26
2023-05-05T02:22:41.096Z,29.27
2023-05-05T02:24:43.371Z,29.26
2023-05-05T02:26:46.073Z,29.26
2023-05-05T02:29:04.635Z,29.25
2023-05-05T02:31:07.394Z,29.29
2023-05-05T02:33:11.373Z,29.28
2023-05-05T02:35:20.193Z,29.27
2023-05-05T02:37:24.589Z,29.28
2023-05-05T02:39:31.753Z,29.28
2023-05-05T02:41:34.627Z,29.26
2023-05-05T02:43:37.126Z,29.27
2023-05-05T02:45:38.756Z,29.28
2023-05-05T02:47:40.448Z,29.27
2023-05-05T02:49:42.954Z,29.26
2023-05-05T02:51:44.535Z,29.26
2023-05-05T02:53:46.369Z,29.27
2023-05-05T02:55:52.580Z,29.25
2023-05-05T02:58:01.518Z,29.25
2023-05-05T03:00:07.888Z,29.27
2023-05-05T03:02:22.215Z,29.26
2023-05-05T03:04:29.941Z,29.28
2023-05-05T03:06:36.743Z,29.26
2023-05-05T03:08:49.418Z,29.28
2023-05-05T03:11:00.382Z,29.28
2023-05-05T03:13:02.766Z,29.27
2023-05-05T03:15:08.726Z,29.26
2023-05-05T03:17:12.268Z,29.28
2023-05-05T03:19:17.142Z,29.29
2023-05-05T03:21:19.014Z,29.30
2023-05-05T03:23:22.738Z,29.31
2023-05-05T03:25:41.774Z,29.30
2023-05-05T03:27:43.351Z,29.29
2023-05-05T03:29:44.939Z,29.28
2023-05-05T03:31:46.851Z,29.27
2023-05-05T03:33:48.515Z,29.27
2023-05-05T03:35:50.344Z,29.28
2023-05-05T03:37:51.917Z,29.28
2023-05-05T03:39:53.478Z,29.30
2023-05-05T03:41:55.238Z,29.32
2023-05-05T03:43:56.802Z,29.30
2023-05-05T03:45:58.862Z,29.30
2023-05-05T03:48:00.454Z,29.29
2023-05-05T03:50:02.088Z,29.29
2023-05-05T03:52:04.208Z,29.28
2023-05-05T03:54:05.827Z,29.28
2023-05-05T03:56:07.765Z,29.29
2023-05-05T03:58:09.397Z,29.28
2023-05-05T04:00:11.908Z,29.30
2023-05-05T04:02:13.516Z,29.31
2023-05-05T04:04:15.119Z,29.32
2023-05-05T04:06:16.769Z,29.32
2023-05-05T04:08:18.462Z,29.30
2023-05-05T04:10:20.032Z,29.30
2023-05-05T04:12:21.568Z,29.30
2023-05-05T04:14:23.152Z,29.29
2023-05-05T04:16:24.813Z,29.29
2023-05-05T04:18:26.609Z,29.28
2023-05-05T04:20:28.365Z,29.28
2023-05-05T04:22:30.161Z,29.29
2023-05-05T04:24:31.759Z,29.30
2023-05-05T04:26:33.952Z,29.31
2023-05-05T04:28:35.628Z,29.30
2023-05-05T04:30:37.385Z,29.29
2023-05-05T04:32:38.896Z,29.30
2023-05-05T04:34:40.478Z,29.30
2023-05-05T04:36:42.086Z,29.30
2023-05-05T04:38:43.637Z,29.30
2023-05-05T04:40:46.860Z,29.29
2023-05-05T04:42:48.559Z,29.30
2023-05-05T04:44:50.153Z,29.30
2023-05-05T04:46:51.825Z,29.30
2023-05-05T04:48:53.517Z,29.29
2023-05-05T04:50:55.192Z,29.29
2023-05-05T04:52:56.813Z,29.28
2023-05-05T04:54:58.386Z,29.28
2023-05-05T04:56:59.979Z,29.30
2023-05-05T04:59:01.527Z,29.29
2023-05-05T05:01:03.462Z,29.29
2023-05-05T05:03:05.710Z,29.29
2023-05-05T05:05:07.767Z,29.29
2023-05-05T05:07:09.387Z,29.27
2023-05-05T05:09:11.112Z,29.27
2023-05-05T05:11:12.642Z,29.30
2023-05-05T05:13:14.327Z,29.28
2023-05-05T05:15:16.032Z,29.30
2023-05-05T05:17:17.621Z,29.29
2023-05-05T05:19:19.297Z,29.29
2023-05-05T05:21:21.185Z,29.30
2023-05-05T05:23:22.815Z,29.29
2023-05-05T05:25:24.799Z,29.29
2023-05-05T05:27:26.741Z,29.29
2023-05-05T05:29:28.420Z,29.28
2023-05-05T05:31:30.352Z,29.28
2023-05-05T05:33:31.983Z,29.27
2023-05-05T05:35:33.703Z,29.28
2023-05-05T05:37:35.311Z,29.30
2023-05-05T05:39:36.895Z,29.31
2023-05-05T05:41:38.414Z,29.30
2023-05-05T05:43:39.956Z,29.29
2023-05-05T05:45:41.694Z,29.27
2023-05-05T05:47:43.348Z,29.28
2023-05-05T05:49:44.992Z,29.28
2023-05-05T05:51:46.572Z,29.25
2023-05-05T05:53:48.188Z,29.27
2023-05-05T05:55:49.789Z,29.30
2023-05-05T05:57:51.407Z,29.32
2023-05-05T05:59:53.935Z,29.30
2023-05-05T06:01:56.355Z,29.29
2023-05-05T06:03:57.961Z,29.27
2023-05-05T06:05:59.640Z,29.27
2023-05-05T06:08:01.266Z,29.27
2023-05-05T06:10:14.476Z,29.27
2023-05-05T06:12:21.004Z,29.27
2023-05-05T06:14:22.989Z,29.27
2023-05-05T06:16:24.612Z,29.26
2023-05-05T06:18:26.318Z,29.28
2023-05-05T06:20:27.961Z,29.30
2023-05-05T06:22:29.536Z,29.30
2023-05-05T06:24:32.010Z,29.28
2023-05-05T06:26:33.585Z,29.27
2023-05-05T06:28:35.253Z,29.26
2023-05-05T06:30:36.866Z,29.25
2023-05-05T06:32:38.517Z,29.26
2023-05-05T06:34:40.270Z,29.27
2023-05-05T06:36:41.885Z,29.27
2023-05-05T06:38:43.537Z,29.27
2023-05-05T06:40:47.508Z,29.26
2023-05-05T06:42:49.166Z,29.26
2023-05-05T06:44:51.377Z,29.32
2023-05-05T06:46:54.076Z,29.28
2023-05-05T06:48:55.773Z,29.26
2023-05-05T06:50:57.462Z,29.24
2023-05-05T06:52:59.050Z,29.25
2023-05-05T06:55:00.773Z,29.26
2023-05-05T06:57:02.468Z,29.28
2023-05-05T06:59:04.050Z,29.29
2023-05-05T07:01:05.847Z,29.28
2023-05-05T07:03:07.895Z,29.27
2023-05-05T07:05:09.889Z,29.30
2023-05-05T07:07:11.813Z,29.28
2023-05-05T07:09:14.778Z,29.29
2023-05-05T07:11:17.314Z,29.28
2023-05-05T07:13:18.963Z,29.28
2023-05-05T07:15:28.696Z,29.29
2023-05-05T07:17:31.198Z,29.28
2023-05-05T07:19:32.781Z,29.29
2023-05-05T07:21:34.605Z,29.29
2023-05-05T07:23:37.885Z,29.32
2023-05-05T07:25:39.507Z,29.30
2023-05-05T07:27:41.124Z,29.30
2023-05-05T07:29:42.938Z,29.30
2023-05-05T07:31:44.745Z,29.29
2023-05-05T07:33:46.449Z,29.30
2023-05-05T07:35:48.044Z,29.28
2023-05-05T07:37:50.849Z,29.29
2023-05-05T07:39:52.420Z,29.30
2023-05-05T07:41:54.016Z,29.29
2023-05-05T07:43:55.815Z,29.31
2023-05-05T07:45:57.459Z,29.32
2023-05-05T07:47:59.203Z,29.32
2023-05-05T07:50:01.303Z,29.30
2023-05-05T07:52:03.036Z,29.28
2023-05-05T07:54:05.286Z,29.21
2023-05-05T07:56:09.095Z,29.15
2023-05-05T07:58:11.207Z,29.04
2023-05-05T08:00:13.697Z,29.00
2023-05-05T08:02:15.561Z,28.95
2023-05-05T08:04:17.311Z,28.87
2023-05-05T08:06:22.328Z,28.81
2023-05-05T08:08:24.945Z,28.74
2023-05-05T08:10:26.906Z,28.68
2023-05-05T08:12:28.913Z,28.59
2023-05-05T08:14:31.276Z,28.46
2023-05-05T08:16:32.994Z,28.37
2023-05-05T08:18:37.591Z,28.31
2023-05-05T08:20:39.522Z,28.26
2023-05-05T08:22:42.427Z,28.16
2023-05-05T08:24:43.961Z,28.10
2023-05-05T08:26:45.579Z,28.03
2023-05-05T08:28:47.179Z,27.97
2023-05-05T08:30:49.709Z,27.90
2023-05-05T08:32:51.431Z,27.89
2023-05-05T08:34:53.067Z,27.88
2023-05-05T08:36:54.700Z,27.82
2023-05-05T08:38:56.751Z,27.78
2023-05-05T08:40:58.422Z,27.73
2023-05-05T08:43:00.590Z,27.64
2023-05-05T08:45:02.180Z,27.60
2023-05-05T08:47:04.408Z,27.54
2023-05-05T08:49:07.949Z,27.56
2023-05-05T08:51:13.063Z,27.54
2023-05-05T08:53:18.203Z,27.47
2023-05-05T08:55:34.342Z,27.52
2023-05-05T08:57:51.706Z,27.49
2023-05-05T08:59:53.911Z,27.53
2023-05-05T09:01:57.119Z,27.54
2023-05-05T09:03:59.458Z,27.53
2023-05-05T09:06:01.494Z,27.57
2023-05-05T09:08:05.271Z,27.59
2023-05-05T09:10:09.661Z,27.57
2023-05-05T09:12:11.283Z,27.56
2023-05-05T09:14:12.985Z,27.56
2023-05-05T09:16:14.543Z,27.56
2023-05-05T09:18:16.302Z,27.52
2023-05-05T09:20:17.957Z,27.52
2023-05-05T09:22:33.128Z,27.50
2023-05-05T09:24:34.707Z,27.44
2023-05-05T09:26:44.453Z,27.39
2023-05-05T09:28:51.777Z,27.36
2023-05-05T09:30:53.709Z,27.28
2023-05-05T09:32:55.787Z,27.26
2023-05-05T09:34:59.017Z,27.28
2023-05-05T09:37:00.715Z,27.22
2023-05-05T09:39:08.958Z,27.27
2023-05-05T09:41:10.570Z,27.26
2023-05-05T09:43:12.149Z,27.27
2023-05-05T09:45:19.585Z,27.31
2023-05-05T09:47:29.561Z,27.34
2023-05-05T09:49:31.649Z,27.31
2023-05-05T09:51:33.759Z,27.24
2023-05-05T09:53:40.526Z,27.24
2023-05-05T09:55:52.736Z,27.25
2023-05-05T09:57:54.316Z,27.18
2023-05-05T09:59:57.800Z,27.18
2023-05-05T10:02:12.865Z,27.19
2023-05-05T10:04:30.367Z,27.29
2023-05-05T10:06:47.579Z,27.33
2023-05-05T10:09:01.427Z,27.29
2023-05-05T10:11:06.745Z,27.29
2023-05-05T10:13:10.097Z,27.37
2023-05-05T10:15:11.996Z,27.32
2023-05-05T10:17:14.829Z,27.28
2023-05-05T10:19:21.775Z,27.27
2023-05-05T10:21:25.176Z,27.21
2023-05-05T10:23:52.917Z,27.19
2023-05-05T10:26:00.757Z,27.24
2023-05-05T10:28:06.343Z,27.26
2023-05-05T10:30:12.825Z,27.26
2023-05-05T10:32:51.951Z,27.26
2023-05-05T10:34:54.349Z,27.20
2023-05-05T10:36:57.485Z,27.16
2023-05-05T10:39:00.256Z,27.14
2023-05-05T10:41:02.255Z,27.12
2023-05-05T10:43:04.353Z,27.17
2023-05-05T10:45:07.420Z,27.16
2023-05-05T10:47:09.305Z,27.13
2023-05-05T10:49:40.814Z,27.15
2023-05-05T10:51:45.374Z,27.07
2023-05-05T10:54:03.579Z,27.04
2023-05-05T10:56:31.365Z,27.03
2023-05-05T10:58:55.502Z,27.06
2023-05-05T11:01:00.578Z,26.99
2023-05-05T11:03:20.867Z,26.89
2023-05-05T11:05:22.794Z,26.86
2023-05-05T11:07:24.777Z,26.90
2023-05-05T11:09:29.658Z,26.93
2023-05-05T11:12:02.382Z,26.94
2023-05-05T11:14:20.555Z,26.93
2023-05-05T11:16:45.693Z,26.91
2023-05-05T11:18:47.459Z,26.89
2023-05-05T11:20:49.168Z,26.91
2023-05-05T11:23:03.282Z,26.87
2023-05-05T11:25:40.421Z,26.94
2023-05-05T11:28:15.259Z,26.89
2023-05-05T11:30:17.621Z,26.89
2023-05-05T11:32:19.962Z,26.86
2023-05-05T11:34:28.068Z,26.91
2023-05-05T11:36:40.609Z,26.93
2023-05-05T11:39:00.232Z,26.92
2023-05-05T11:41:33.965Z,26.95
2023-05-05T11:43:36.065Z,26.97
2023-05-05T11:45:37.752Z,27.03
2023-05-05T11:47:39.443Z,27.02
2023-05-05T11:49:41.178Z,26.98
2023-05-05T11:51:43.141Z,27.01
2023-05-05T11:53:48.593Z,26.96
2023-05-05T11:55:50.188Z,26.93
2023-05-05T11:57:51.939Z,26.96
2023-05-05T12:00:01.301Z,26.99
2023-05-05T12:02:04.119Z,26.98
2023-05-05T12:04:05.862Z,26.99
2023-05-05T12:06:08.337Z,26.97
2023-05-05T12:08:10.304Z,27.00
2023-05-05T12:10:11.949Z,26.99
2023-05-05T12:12:14.551Z,26.90
2023-05-05T12:14:16.195Z,26.86
2023-05-05T12:16:19.430Z,26.87
2023-05-05T12:18:21.597Z,26.85
2023-05-05T12:20:31.400Z,26.86
2023-05-05T12:22:32.961Z,26.86
2023-05-05T12:24:34.824Z,26.88
2023-05-05T12:26:36.482Z,26.93
2023-05-05T12:28:47.566Z,26.87
2023-05-05T12:30:58.928Z,26.82
2023-05-05T12:33:05.425Z,26.84
2023-05-05T12:35:07.856Z,26.87
2023-05-05T12:37:09.602Z,26.89
2023-05-05T12:39:11.947Z,26.91
2023-05-05T12:41:18.154Z,26.94
2023-05-05T12:43:32.542Z,26.95
2023-05-05T12:45:34.287Z,26.89
2023-05-05T12:47:36.798Z,26.86
2023-05-05T12:49:51.612Z,26.82
2023-05-05T12:51:54.880Z,26.83
2023-05-05T12:54:11.101Z,26.83
2023-05-05T12:56:32.138Z,26.90
2023-05-05T12:58:48.896Z,26.86
2023-05-05T13:01:08.402Z,26.74
2023-05-05T13:03:19.932Z,26.76
2023-05-05T13:05:36.708Z,26.74
2023-05-05T13:07:49.874Z,26.76
2023-05-05T13:09:51.509Z,26.78
2023-05-05T13:11:54.469Z,26.80
2023-05-05T13:13:56.641Z,26.84
2023-05-05T13:15:58.274Z,26.84
2023-05-05T13:18:01.238Z,26.84
2023-05-05T13:20:03.126Z,26.80
2023-05-05T13:22:04.628Z,26.77
2023-05-05T13:24:21.453Z,26.79
2023-05-05T13:26:28.359Z,26.87
2023-05-05T13:28:30.099Z,26.65
2023-05-05T13:30:31.784Z,26.65
2023-05-05T13:32:33.413Z,26.55
2023-05-05T13:34:35.099Z,26.44
2023-05-05T13:36:37.072Z,26.52
2023-05-05T13:38:38.763Z,26.67
2023-05-05T13:40:40.438Z,26.76
2023-05-05T13:42:42.082Z,26.80
2023-05-05T13:44:43.753Z,26.91
2023-05-05T13:46:45.387Z,26.95
2023-05-05T13:48:47.279Z,26.95
2023-05-05T13:50:49.364Z,26.94
2023-05-05T13:52:50.990Z,26.95
2023-05-05T13:54:52.596Z,26.98
2023-05-05T13:56:54.182Z,26.96
2023-05-05T13:58:55.766Z,26.95
2023-05-05T14:00:57.586Z,26.95
2023-05-05T14:02:59.376Z,26.96
2023-05-05T14:05:01.029Z,26.96
2023-05-05T14:07:02.732Z,26.92
2023-05-05T14:09:06.103Z,26.88
2023-05-05T14:11:08.167Z,26.90
2023-05-05T14:13:09.900Z,26.81
2023-05-05T14:15:11.765Z,26.81
2023-05-05T14:17:13.498Z,26.83
2023-05-05T14:19:15.105Z,26.90
2023-05-05T14:21:16.751Z,26.90
2023-05-05T14:23:18.737Z,26.92
2023-05-05T14:25:23.453Z,26.99
2023-05-05T14:27:25.135Z,27.06
2023-05-05T14:29:26.694Z,27.08
2023-05-05T14:31:28.664Z,27.17
2023-05-05T14:33:30.450Z,27.12
2023-05-05T14:35:32.202Z,27.16
2023-05-05T14:37:33.945Z,27.15
2023-05-05T14:39:35.638Z,27.14
2023-05-05T14:41:37.276Z,27.04
2023-05-05T14:43:38.876Z,27.02
2023-05-05T14:45:41.436Z,26.88
2023-05-05T14:47:43.199Z,26.92
2023-05-05T14:49:44.840Z,26.95
2023-05-05T14:51:46.486Z,26.93
2023-05-05T14:53:48.424Z,26.99
2023-05-05T14:55:50.104Z,27.06
2023-05-05T14:57:51.930Z,27.11
2023-05-05T14:59:53.590Z,27.17
2023-05-05T15:01:55.990Z,27.16
2023-05-05T15:03:57.789Z,27.14
2023-05-05T15:05:59.442Z,27.19
2023-05-05T15:08:01.015Z,27.22
2023-05-05T15:10:02.832Z,27.23
2023-05-05T15:12:04.858Z,27.22
2023-05-05T15:14:07.079Z,27.22
2023-05-05T15:16:08.662Z,27.15
2023-05-05T15:18:11.611Z,27.16
2023-05-05T15:20:13.331Z,27.09
2023-05-05T15:22:14.855Z,27.12
2023-05-05T15:24:16.526Z,27.12
2023-05-05T15:26:18.599Z,27.11
2023-05-05T15:28:20.268Z,27.11
2023-05-05T15:30:21.858Z,27.09
2023-05-05T15:32:23.545Z,27.06
2023-05-05T15:34:25.128Z,27.05
2023-05-05T15:36:26.757Z,26.91
2023-05-05T15:38:29.904Z,26.92
2023-05-05T15:40:31.568Z,26.87
2023-05-05T15:42:36.141Z,26.83
2023-05-05T15:44:37.946Z,26.87
2023-05-05T15:46:39.851Z,26.87
2023-05-05T15:48:41.448Z,26.95
2023-05-05T15:50:43.028Z,26.92
2023-05-05T15:52:45.437Z,26.82
2023-05-05T15:54:47.144Z,26.80
2023-05-05T15:56:48.763Z,26.79
2023-05-05T15:58:50.409Z,26.83
2023-05-05T16:00:52.067Z,26.85
2023-05-05T16:02:53.765Z,26.90
2023-05-05T16:04:55.442Z,26.90
2023-05-05T16:06:58.045Z,26.94
2023-05-05T16:08:59.664Z,26.96
2023-05-05T16:11:01.446Z,26.96
2023-05-05T16:13:03.254Z,26.95
2023-05-05T16:15:05.324Z,26.93
2023-05-05T16:17:08.704Z,26.92
2023-05-05T16:19:10.307Z,26.93
2023-05-05T16:21:12.260Z,26.98
2023-05-05T16:23:13.963Z,26.95
2023-05-05T16:25:18.214Z,26.94
2023-05-05T16:27:19.784Z,26.92
2023-05-05T16:29:21.453Z,26.94
2023-05-05T16:31:23.092Z,26.94
2023-05-05T16:33:25.059Z,26.89
2023-05-05T16:35:27.079Z,26.90
2023-05-05T16:37:28.668Z,26.93
2023-05-05T16:39:32.835Z,26.97
2023-05-05T16:41:34.506Z,26.92
2023-05-05T16:43:37.225Z,26.95
2023-05-05T16:45:38.931Z,26.97
2023-05-05T16:47:40.745Z,27.00
2023-05-05T16:49:42.467Z,26.99
2023-05-05T16:51:44.065Z,27.00
2023-05-05T16:53:48.298Z,26.97
2023-05-05T16:55:52.197Z,26.95
2023-05-05T16:57:53.776Z,26.95
2023-05-05T16:59:56.190Z,26.94
2023-05-05T17:01:57.885Z,26.94
2023-05-05T17:04:02.428Z,26.94
2023-05-05T17:06:04.257Z,26.91
2023-05-05T17:08:05.877Z,26.92
2023-05-05T17:10:07.989Z,26.94
2023-05-05T17:12:09.516Z,26.95
2023-05-05T17:14:11.105Z,26.93
2023-05-05T17:16:12.717Z,26.91
2023-05-05T17:18:14.541Z,26.91
2023-05-05T17:20:16.643Z,26.93
2023-05-05T17:22:18.271Z,26.90
2023-05-05T17:24:20.059Z,26.89
2023-05-05T17:26:21.604Z,26.90
2023-05-05T17:28:23.468Z,26.85
2023-05-05T17:30:25.628Z,26.83
2023-05-05T17:32:27.267Z,26.79
2023-05-05T17:34:28.902Z,26.77
2023-05-05T17:36:30.440Z,26.74
2023-05-05T17:38:32.046Z,26.68
2023-05-05T17:40:35.936Z,26.66
2023-05-05T17:42:38.288Z,26.65
2023-05-05T17:44:40.031Z,26.69
2023-05-05T17:46:41.864Z,26.65
2023-05-05T17:48:43.719Z,26.68
2023-05-05T17:50:47.085Z,26.74
2023-05-05T17:52:48.672Z,26.77
2023-05-05T17:54:50.645Z,26.77
2023-05-05T17:56:52.382Z,26.75
2023-05-05T17:58:54.056Z,26.75
2023-05-05T18:00:55.753Z,26.73
2023-05-05T18:02:57.775Z,26.73
2023-05-05T18:04:59.384Z,26.77
2023-05-05T18:07:01.010Z,26.77
2023-05-05T18:09:03.297Z,26.75
2023-05-05T18:11:04.968Z,26.78
2023-05-05T18:13:06.723Z,26.79
2023-05-05T18:15:09.266Z,26.79
2023-05-05T18:17:11.023Z,26.75
2023-05-05T18:19:12.550Z,26.78
2023-05-05T18:21:14.167Z,26.75
2023-05-05T18:23:15.948Z,26.78
2023-05-05T18:25:18.918Z,26.80
2023-05-05T18:27:20.471Z,26.93
2023-05-05T18:29:22.252Z,27.02
2023-05-05T18:31:26.223Z,27.17
2023-05-05T18:33:27.970Z,27.28
2023-05-05T18:35:29.638Z,27.42
2023-05-05T18:37:31.522Z,27.57
2023-05-05T18:39:33.178Z,27.72
2023-05-05T18:41:35.798Z,27.81
2023-05-05T18:43:37.464Z,27.90
2023-05-05T18:45:39.118Z,27.94
2023-05-05T18:47:41.430Z,27.96
2023-05-05T18:49:45.294Z,27.90
2023-05-05T18:51:47.002Z,27.82
2023-05-05T18:53:48.516Z,27.75
2023-05-05T18:55:50.300Z,27.70
2023-05-05T18:57:53.019Z,27.68
2023-05-05T18:59:54.595Z,27.67
2023-05-05T19:01:56.225Z,27.66
2023-05-05T19:03:57.927Z,27.65
2023-05-05T19:05:59.511Z,27.63
2023-05-05T19:08:01.072Z,27.61
2023-05-05T19:10:04.511Z,27.63
2023-05-05T19:12:06.346Z,27.63
2023-05-05T19:14:08.470Z,27.60
2023-05-05T19:16:11.185Z,27.60
2023-05-05T19:18:13.194Z,27.59
2023-05-05T19:20:14.815Z,27.59
2023-05-05T19:22:17.520Z,27.59
2023-05-05T19:24:19.190Z,27.60
2023-05-05T19:26:21.802Z,27.63
2023-05-05T19:28:23.495Z,27.63
2023-05-05T19:30:25.693Z,27.62
2023-05-05T19:32:27.819Z,27.63
2023-05-05T19:34:29.546Z,27.63
2023-05-05T19:36:31.908Z,27.63
2023-05-05T19:38:33.680Z,27.63
2023-05-05T19:40:35.270Z,27.62
2023-05-05T19:42:36.971Z,27.64
2023-05-05T19:44:38.686Z,27.65
2023-05-05T19:46:40.607Z,27.66
2023-05-05T19:48:42.783Z,27.68
2023-05-05T19:50:44.391Z,27.71
2023-05-05T19:52:45.938Z,27.72
2023-05-05T19:54:47.567Z,27.72
2023-05-05T19:56:49.155Z,27.72
2023-05-05T19:58:58.874Z,27.72
2023-05-05T20:01:00.553Z,27.73
2023-05-05T20:03:02.375Z,27.72
2023-05-05T20:05:04.452Z,27.73
2023-05-05T20:07:06.089Z,27.74
2023-05-05T20:09:08.641Z,27.78
2023-05-05T20:11:10.208Z,27.78
2023-05-05T20:13:11.936Z,27.80
2023-05-05T20:15:18.466Z,27.82
2023-05-05T20:17:21.313Z,27.82
2023-05-05T20:19:23.105Z,27.82
2023-05-05T20:21:24.926Z,27.81
2023-05-05T20:23:26.879Z,27.82
2023-05-05T20:25:28.522Z,27.81
2023-05-05T20:27:30.252Z,27.81
2023-05-05T20:29:31.941Z,27.84
2023-05-05T20:31:34.958Z,27.87
2023-05-05T20:33:37.017Z,27.88
2023-05-05T20:35:38.562Z,27.89
2023-05-05T20:37:40.382Z,27.89
2023-05-05T20:39:43.674Z,27.90
2023-05-05T20:41:46.295Z,27.89
2023-05-05T20:43:47.972Z,27.89
2023-05-05T20:45:49.554Z,27.88
2023-05-05T20:47:52.346Z,27.89
2023-05-05T20:49:54.286Z,27.90
2023-05-05T20:51:55.983Z,27.91
2023-05-05T20:53:57.926Z,27.94
2023-05-05T20:55:59.616Z,27.95
2023-05-05T20:58:01.423Z,27.96
2023-05-05T21:00:04.037Z,27.95
2023-05-05T21:02:05.852Z,27.96
2023-05-05T21:04:07.599Z,27.96
2023-05-05T21:06:09.144Z,27.95
2023-05-05T21:08:10.759Z,27.95
2023-05-05T21:10:12.604Z,27.96
2023-05-05T21:12:14.509Z,27.97
2023-05-05T21:14:16.218Z,27.99
2023-05-05T21:16:17.921Z,28.02
2023-05-05T21:18:19.512Z,28.02
2023-05-05T21:20:21.770Z,28.03
2023-05-05T21:22:23.692Z,28.04
2023-05-05T21:24:25.895Z,28.03
2023-05-05T21:26:27.626Z,28.03
2023-05-05T21:28:29.175Z,28.03
2023-05-05T21:30:30.802Z,28.03
2023-05-05T21:32:32.389Z,28.04
2023-05-05T21:34:34.342Z,28.05
2023-05-05T21:36:36.798Z,28.05
2023-05-05T21:38:38.398Z,28.07
2023-05-05T21:40:40.055Z,28.08
2023-05-05T21:42:42.348Z,28.09
2023-05-05T21:44:43.925Z,28.10
2023-05-05T21:46:45.653Z,28.10
2023-05-05T21:48:47.483Z,28.10
2023-05-05T21:50:49.121Z,28.09
2023-05-05T21:52:50.706Z,28.09
2023-05-05T21:54:52.300Z,28.12
2023-05-05T21:56:53.906Z,28.13
2023-05-05T21:58:55.527Z,28.15
2023-05-05T22:00:57.172Z,28.17
2023-05-05T22:02:58.858Z,28.18
2023-05-05T22:05:00.550Z,28.15
2023-05-05T22:07:02.151Z,28.18
2023-05-05T22:09:03.820Z,28.16
2023-05-05T22:11:05.475Z,28.15
2023-05-05T22:13:07.172Z,28.14
2023-05-05T22:15:09.360Z,28.15
2023-05-05T22:17:11.321Z,28.18
2023-05-05T22:19:12.987Z,28.19
2023-05-05T22:21:14.668Z,28.20
2023-05-05T22:23:16.490Z,28.23
2023-05-05T22:25:18.167Z,28.23
2023-05-05T22:27:19.779Z,28.24
2023-05-05T22:29:21.356Z,28.23
2023-05-05T22:31:23.099Z,28.22
2023-05-05T22:33:24.814Z,28.21
2023-05-05T22:35:26.873Z,28.20
2023-05-05T22:37:28.448Z,28.20
2023-05-05T22:39:30.586Z,28.21
2023-05-05T22:41:32.274Z,28.24
2023-05-05T22:43:33.842Z,28.26
2023-05-05T22:45:35.750Z,28.26
2023-05-05T22:47:37.390Z,28.26
2023-05-05T22:49:39.149Z,28.27
2023-05-05T22:51:40.868Z,28.26
2023-05-05T22:53:42.457Z,28.24
2023-05-05T22:55:44.090Z,28.25
2023-05-05T22:57:46.013Z,28.25
2023-05-05T22:59:47.662Z,28.24
2023-05-05T23:01:49.347Z,28.26
2023-05-05T23:03:51.122Z,28.28
2023-05-05T23:05:52.839Z,28.30
2023-05-05T23:07:54.540Z,28.30
2023-05-05T23:09:56.106Z,28.30
2023-05-05T23:11:57.755Z,28.29
2023-05-05T23:13:59.322Z,28.28
2023-05-05T23:16:01.172Z,28.28
2023-05-05T23:18:03.086Z,28.26
2023-05-05T23:20:05.559Z,28.27
2023-05-05T23:22:07.116Z,28.27
2023-05-05T23:24:09.029Z,28.29
2023-05-05T23:26:13.069Z,28.31
2023-05-05T23:28:14.621Z,28.31
2023-05-05T23:30:16.388Z,28.34
2023-05-05T23:32:17.975Z,28.33
2023-05-05T23:34:19.601Z,28.32
2023-05-05T23:36:21.298Z,28.32
2023-05-05T23:38:22.907Z,28.31
2023-05-05T23:40:24.521Z,28.31
2023-05-05T23:42:26.122Z,28.33
2023-05-05T23:44:27.790Z,28.32
2023-05-05T23:46:29.429Z,28.33
2023-05-05T23:48:30.971Z,28.33
2023-05-05T23:50:32.579Z,28.34
2023-05-05T23:52:34.095Z,28.35
2023-05-05T23:54:35.673Z,28.35
2023-05-05T23:56:37.469Z,28.35
2023-05-05T23:58:39.236Z,28.34
